sensor_id;sensor_type;location;lat;lon;timestamp;P1;durP1;ratioP1;P2;durP2;ratioP2
78834;SDS011;68187;42.682;23.352;2024-03-23T00:53:44;25.85;;;15.43;;
78834;SDS011;68187;42.682;23.352;2024-03-23T00:56:11;23.67;;;13.63;;
78834;SDS011;68187;42.682;23.352;2024-03-23T00:58:37;22.20;;;14.20;;
78834;SDS011;68187;42.682;23.352;2024-03-23T01:01:04;23.73;;;15.13;;
78834;SDS011;68187;42.682;23.352;2024-03-23T01:03:30;24.90;;;15.65;;
78834;SDS011;68187;42.682;23.352;2024-03-23T01:05:58;25.13;;;15.02;;
78834;SDS011;68187;42.682;23.352;2024-03-23T01:08:25;25.65;;;14.23;;
78834;SDS011;68187;42.682;23.352;2024-03-23T01:10:56;22.17;;;14.77;;
78834;SDS011;68187;42.682;23.352;2024-03-23T01:13:23;25.15;;;14.82;;
78834;SDS011;68187;42.682;23.352;2024-03-23T01:15:50;21.58;;;14.70;;
78834;SDS011;68187;42.682;23.352;2024-03-23T01:18:17;25.05;;;15.90;;
78834;SDS011;68187;42.682;23.352;2024-03-23T01:20:44;27.25;;;16.42;;
78834;SDS011;68187;42.682;23.352;2024-03-23T01:23:10;25.70;;;13.57;;
78834;SDS011;68187;42.682;23.352;2024-03-23T01:25:37;26.65;;;14.98;;
78834;SDS011;68187;42.682;23.352;2024-03-23T01:28:05;20.70;;;13.80;;
78834;SDS011;68187;42.682;23.352;2024-03-23T01:30:32;23.55;;;14.27;;
78834;SDS011;68187;42.682;23.352;2024-03-23T01:32:58;22.55;;;14.23;;
78834;SDS011;68187;42.682;23.352;2024-03-23T01:35:25;21.48;;;15.68;;
78834;SDS011;68187;42.682;23.352;2024-03-23T01:37:51;27.48;;;18.02;;
78834;SDS011;68187;42.682;23.352;2024-03-23T01:40:18;24.05;;;14.38;;
78834;SDS011;68187;42.682;23.352;2024-03-23T01:42:54;24.55;;;18.38;;
78834;SDS011;68187;42.682;23.352;2024-03-23T01:45:23;27.33;;;16.10;;
78834;SDS011;68187;42.682;23.352;2024-03-23T01:47:50;21.33;;;12.50;;
78834;SDS011;68187;42.682;23.352;2024-03-23T01:50:17;22.88;;;14.90;;
78834;SDS011;68187;42.682;23.352;2024-03-23T01:52:43;21.27;;;15.25;;
78834;SDS011;68187;42.682;23.352;2024-03-23T01:55:10;21.73;;;12.40;;
78834;SDS011;68187;42.682;23.352;2024-03-23T01:57:37;25.83;;;14.15;;
78834;SDS011;68187;42.682;23.352;2024-03-23T02:00:04;23.63;;;14.43;;
78834;SDS011;68187;42.682;23.352;2024-03-23T02:02:33;21.20;;;14.32;;
78834;SDS011;68187;42.682;23.352;2024-03-23T02:04:59;23.88;;;16.02;;
78834;SDS011;68187;42.682;23.352;2024-03-23T02:07:26;25.65;;;14.75;;
78834;SDS011;68187;42.682;23.352;2024-03-23T02:09:53;27.23;;;15.90;;
78834;SDS011;68187;42.682;23.352;2024-03-23T02:12:20;22.35;;;14.50;;
78834;SDS011;68187;42.682;23.352;2024-03-23T02:14:47;25.67;;;16.67;;
78834;SDS011;68187;42.682;23.352;2024-03-23T02:17:13;23.13;;;13.95;;
78834;SDS011;68187;42.682;23.352;2024-03-23T02:19:41;24.70;;;14.48;;
78834;SDS011;68187;42.682;23.352;2024-03-23T02:22:07;26.15;;;14.70;;
78834;SDS011;68187;42.682;23.352;2024-03-23T02:24:37;19.67;;;15.30;;
78834;SDS011;68187;42.682;23.352;2024-03-23T02:27:03;26.67;;;15.38;;
78834;SDS011;68187;42.682;23.352;2024-03-23T02:29:30;24.63;;;14.38;;
78834;SDS011;68187;42.682;23.352;2024-03-23T02:31:56;21.95;;;15.27;;
78834;SDS011;68187;42.682;23.352;2024-03-23T02:34:24;22.67;;;15.38;;
78834;SDS011;68187;42.682;23.352;2024-03-23T02:36:49;21.05;;;14.27;;
78834;SDS011;68187;42.682;23.352;2024-03-23T02:39:16;23.73;;;15.15;;
78834;SDS011;68187;42.682;23.352;2024-03-23T02:41:43;22.83;;;15.40;;
78834;SDS011;68187;42.682;23.352;2024-03-23T02:44:10;23.20;;;14.50;;
78834;SDS011;68187;42.682;23.352;2024-03-23T02:46:37;24.92;;;16.35;;
78834;SDS011;68187;42.682;23.352;2024-03-23T02:49:04;23.23;;;16.15;;
78834;SDS011;68187;42.682;23.352;2024-03-23T02:51:30;22.60;;;15.35;;
78834;SDS011;68187;42.682;23.352;2024-03-23T02:53:57;21.35;;;15.57;;
78834;SDS011;68187;42.682;23.352;2024-03-23T02:56:23;27.88;;;14.15;;
78834;SDS011;68187;42.682;23.352;2024-03-23T02:58:51;23.00;;;15.43;;
78834;SDS011;68187;42.682;23.352;2024-03-23T03:01:17;24.35;;;17.35;;
78834;SDS011;68187;42.682;23.352;2024-03-23T03:03:44;23.20;;;15.52;;
78834;SDS011;68187;42.682;23.352;2024-03-23T03:06:09;24.33;;;14.45;;
78834;SDS011;68187;42.682;23.352;2024-03-23T03:08:36;22.95;;;14.98;;
78834;SDS011;68187;42.682;23.352;2024-03-23T03:11:02;24.38;;;12.80;;
78834;SDS011;68187;42.682;23.352;2024-03-23T03:13:30;21.52;;;14.98;;
78834;SDS011;68187;42.682;23.352;2024-03-23T03:15:57;21.65;;;16.70;;
78834;SDS011;68187;42.682;23.352;2024-03-23T03:18:24;25.17;;;15.63;;
78834;SDS011;68187;42.682;23.352;2024-03-23T03:20:50;22.20;;;15.23;;
78834;SDS011;68187;42.682;23.352;2024-03-23T03:23:20;23.55;;;18.90;;
78834;SDS011;68187;42.682;23.352;2024-03-23T03:25:46;24.20;;;14.57;;
78834;SDS011;68187;42.682;23.352;2024-03-23T03:28:13;25.77;;;15.43;;
78834;SDS011;68187;42.682;23.352;2024-03-23T03:30:39;26.70;;;15.43;;
78834;SDS011;68187;42.682;23.352;2024-03-23T03:33:07;26.58;;;16.67;;
78834;SDS011;68187;42.682;23.352;2024-03-23T03:35:33;23.20;;;16.13;;
78834;SDS011;68187;42.682;23.352;2024-03-23T03:38:00;32.60;;;16.00;;
78834;SDS011;68187;42.682;23.352;2024-03-23T03:40:26;24.50;;;15.93;;
78834;SDS011;68187;42.682;23.352;2024-03-23T03:42:53;22.05;;;14.80;;
78834;SDS011;68187;42.682;23.352;2024-03-23T03:45:19;21.02;;;14.50;;
78834;SDS011;68187;42.682;23.352;2024-03-23T03:47:45;24.42;;;16.95;;
78834;SDS011;68187;42.682;23.352;2024-03-23T03:50:13;24.85;;;15.82;;
78834;SDS011;68187;42.682;23.352;2024-03-23T03:52:40;25.38;;;15.65;;
78834;SDS011;68187;42.682;23.352;2024-03-23T03:55:12;23.15;;;14.98;;
78834;SDS011;68187;42.682;23.352;2024-03-23T03:57:39;21.75;;;14.27;;
78834;SDS011;68187;42.682;23.352;2024-03-23T04:00:06;23.65;;;14.85;;
78834;SDS011;68187;42.682;23.352;2024-03-23T04:02:36;26.05;;;14.38;;
78834;SDS011;68187;42.682;23.352;2024-03-23T04:05:02;25.20;;;16.02;;
78834;SDS011;68187;42.682;23.352;2024-03-23T04:07:30;21.98;;;14.45;;
78834;SDS011;68187;42.682;23.352;2024-03-23T04:09:56;21.45;;;14.98;;
78834;SDS011;68187;42.682;23.352;2024-03-23T04:12:23;21.92;;;14.70;;
78834;SDS011;68187;42.682;23.352;2024-03-23T04:14:49;18.20;;;11.52;;
78834;SDS011;68187;42.682;23.352;2024-03-23T04:17:16;16.13;;;12.70;;
78834;SDS011;68187;42.682;23.352;2024-03-23T04:19:42;19.10;;;13.18;;
78834;SDS011;68187;42.682;23.352;2024-03-23T04:22:10;18.00;;;14.02;;
78834;SDS011;68187;42.682;23.352;2024-03-23T04:24:38;18.40;;;13.13;;
78834;SDS011;68187;42.682;23.352;2024-03-23T04:27:05;20.48;;;12.32;;
78834;SDS011;68187;42.682;23.352;2024-03-23T04:29:31;23.35;;;14.52;;
78834;SDS011;68187;42.682;23.352;2024-03-23T04:31:57;15.70;;;11.68;;
78834;SDS011;68187;42.682;23.352;2024-03-23T04:34:23;15.52;;;11.40;;
78834;SDS011;68187;42.682;23.352;2024-03-23T04:36:50;20.10;;;13.18;;
78834;SDS011;68187;42.682;23.352;2024-03-23T04:39:16;23.70;;;12.00;;
78834;SDS011;68187;42.682;23.352;2024-03-23T04:41:46;20.45;;;13.20;;
78834;SDS011;68187;42.682;23.352;2024-03-23T04:44:13;18.10;;;12.57;;
78834;SDS011;68187;42.682;23.352;2024-03-23T04:46:39;16.00;;;11.90;;
78834;SDS011;68187;42.682;23.352;2024-03-23T04:49:06;21.67;;;11.77;;
78834;SDS011;68187;42.682;23.352;2024-03-23T04:51:35;18.35;;;11.30;;
78834;SDS011;68187;42.682;23.352;2024-03-23T04:54:03;17.23;;;11.80;;
78834;SDS011;68187;42.682;23.352;2024-03-23T04:56:31;19.38;;;11.38;;
78834;SDS011;68187;42.682;23.352;2024-03-23T04:58:59;17.52;;;12.88;;
78834;SDS011;68187;42.682;23.352;2024-03-23T05:01:26;18.73;;;11.32;;
78834;SDS011;68187;42.682;23.352;2024-03-23T05:03:54;16.60;;;13.55;;
78834;SDS011;68187;42.682;23.352;2024-03-23T05:06:19;18.60;;;13.48;;
78834;SDS011;68187;42.682;23.352;2024-03-23T05:08:46;19.15;;;11.20;;
78834;SDS011;68187;42.682;23.352;2024-03-23T05:11:12;24.42;;;10.77;;
78834;SDS011;68187;42.682;23.352;2024-03-23T05:13:39;17.88;;;11.55;;
78834;SDS011;68187;42.682;23.352;2024-03-23T05:16:07;16.00;;;11.63;;
78834;SDS011;68187;42.682;23.352;2024-03-23T05:18:34;16.70;;;12.27;;
78834;SDS011;68187;42.682;23.352;2024-03-23T05:21:01;22.23;;;11.40;;
78834;SDS011;68187;42.682;23.352;2024-03-23T05:23:28;15.88;;;9.30;;
78834;SDS011;68187;42.682;23.352;2024-03-23T05:25:55;16.67;;;12.32;;
78834;SDS011;68187;42.682;23.352;2024-03-23T05:28:21;21.48;;;13.18;;
78834;SDS011;68187;42.682;23.352;2024-03-23T05:30:50;16.98;;;10.73;;
78834;SDS011;68187;42.682;23.352;2024-03-23T05:33:17;16.67;;;11.52;;
78834;SDS011;68187;42.682;23.352;2024-03-23T05:35:44;18.08;;;11.52;;
78834;SDS011;68187;42.682;23.352;2024-03-23T05:38:10;15.63;;;9.90;;
78834;SDS011;68187;42.682;23.352;2024-03-23T05:40:37;11.35;;;9.07;;
78834;SDS011;68187;42.682;23.352;2024-03-23T05:43:05;14.10;;;9.57;;
78834;SDS011;68187;42.682;23.352;2024-03-23T05:45:32;14.00;;;8.88;;
78834;SDS011;68187;42.682;23.352;2024-03-23T05:47:58;12.30;;;7.70;;
78834;SDS011;68187;42.682;23.352;2024-03-23T05:50:26;12.32;;;7.85;;
78834;SDS011;68187;42.682;23.352;2024-03-23T05:52:52;11.73;;;8.18;;
78834;SDS011;68187;42.682;23.352;2024-03-23T05:55:19;14.02;;;9.45;;
78834;SDS011;68187;42.682;23.352;2024-03-23T05:57:45;15.35;;;9.13;;
78834;SDS011;68187;42.682;23.352;2024-03-23T06:00:12;15.05;;;9.52;;
78834;SDS011;68187;42.682;23.352;2024-03-23T06:02:41;16.88;;;11.52;;
78834;SDS011;68187;42.682;23.352;2024-03-23T06:05:09;14.40;;;10.48;;
78834;SDS011;68187;42.682;23.352;2024-03-23T06:07:37;15.68;;;9.10;;
78834;SDS011;68187;42.682;23.352;2024-03-23T06:10:04;17.27;;;11.80;;
78834;SDS011;68187;42.682;23.352;2024-03-23T06:12:30;18.85;;;11.80;;
78834;SDS011;68187;42.682;23.352;2024-03-23T06:14:57;13.57;;;10.88;;
78834;SDS011;68187;42.682;23.352;2024-03-23T06:17:23;16.30;;;10.70;;
78834;SDS011;68187;42.682;23.352;2024-03-23T06:19:50;14.02;;;10.57;;
78834;SDS011;68187;42.682;23.352;2024-03-23T06:22:16;15.10;;;11.75;;
78834;SDS011;68187;42.682;23.352;2024-03-23T06:24:45;14.55;;;10.43;;
78834;SDS011;68187;42.682;23.352;2024-03-23T06:27:11;19.10;;;10.82;;
78834;SDS011;68187;42.682;23.352;2024-03-23T06:29:38;14.95;;;13.00;;
78834;SDS011;68187;42.682;23.352;2024-03-23T06:32:04;14.38;;;10.23;;
78834;SDS011;68187;42.682;23.352;2024-03-23T06:34:30;15.93;;;11.20;;
78834;SDS011;68187;42.682;23.352;2024-03-23T06:36:56;16.60;;;11.57;;
78834;SDS011;68187;42.682;23.352;2024-03-23T06:39:23;20.83;;;10.45;;
78834;SDS011;68187;42.682;23.352;2024-03-23T06:41:52;23.10;;;14.10;;
78834;SDS011;68187;42.682;23.352;2024-03-23T06:44:20;19.45;;;12.73;;
78834;SDS011;68187;42.682;23.352;2024-03-23T06:46:46;24.48;;;13.25;;
78834;SDS011;68187;42.682;23.352;2024-03-23T06:49:14;20.10;;;9.90;;
78834;SDS011;68187;42.682;23.352;2024-03-23T06:51:40;21.52;;;12.98;;
78834;SDS011;68187;42.682;23.352;2024-03-23T06:54:07;21.77;;;14.80;;
78834;SDS011;68187;42.682;23.352;2024-03-23T06:56:33;17.88;;;10.50;;
78834;SDS011;68187;42.682;23.352;2024-03-23T06:59:01;20.67;;;12.52;;
78834;SDS011;68187;42.682;23.352;2024-03-23T07:01:27;20.00;;;14.40;;
78834;SDS011;68187;42.682;23.352;2024-03-23T07:03:54;31.58;;;15.35;;
78834;SDS011;68187;42.682;23.352;2024-03-23T07:06:21;24.90;;;17.50;;
78834;SDS011;68187;42.682;23.352;2024-03-23T07:08:48;21.38;;;15.77;;
78834;SDS011;68187;42.682;23.352;2024-03-23T07:11:18;23.55;;;14.82;;
78834;SDS011;68187;42.682;23.352;2024-03-23T07:13:45;24.58;;;14.80;;
78834;SDS011;68187;42.682;23.352;2024-03-23T07:16:13;21.42;;;14.65;;
78834;SDS011;68187;42.682;23.352;2024-03-23T07:18:39;20.77;;;12.73;;
78834;SDS011;68187;42.682;23.352;2024-03-23T07:21:05;20.83;;;15.48;;
78834;SDS011;68187;42.682;23.352;2024-03-23T07:23:32;29.23;;;18.95;;
78834;SDS011;68187;42.682;23.352;2024-03-23T07:25:58;24.52;;;15.15;;
78834;SDS011;68187;42.682;23.352;2024-03-23T07:28:26;21.67;;;15.02;;
78834;SDS011;68187;42.682;23.352;2024-03-23T07:31:02;21.45;;;14.38;;
78834;SDS011;68187;42.682;23.352;2024-03-23T07:33:31;19.40;;;13.93;;
78834;SDS011;68187;42.682;23.352;2024-03-23T07:35:58;21.65;;;14.27;;
78834;SDS011;68187;42.682;23.352;2024-03-23T07:38:26;21.83;;;12.40;;
78834;SDS011;68187;42.682;23.352;2024-03-23T07:40:52;20.65;;;13.02;;
78834;SDS011;68187;42.682;23.352;2024-03-23T07:43:28;22.15;;;14.00;;
78834;SDS011;68187;42.682;23.352;2024-03-23T07:45:54;20.40;;;14.13;;
78834;SDS011;68187;42.682;23.352;2024-03-23T07:48:21;18.58;;;12.38;;
78834;SDS011;68187;42.682;23.352;2024-03-23T07:50:56;21.13;;;13.02;;
78834;SDS011;68187;42.682;23.352;2024-03-23T07:53:24;17.80;;;10.77;;
78834;SDS011;68187;42.682;23.352;2024-03-23T07:56:00;20.38;;;13.65;;
78834;SDS011;68187;42.682;23.352;2024-03-23T07:58:28;20.13;;;12.70;;
78834;SDS011;68187;42.682;23.352;2024-03-23T08:00:54;18.20;;;14.38;;
78834;SDS011;68187;42.682;23.352;2024-03-23T08:03:21;20.40;;;14.85;;
78834;SDS011;68187;42.682;23.352;2024-03-23T08:05:47;20.27;;;14.27;;
78834;SDS011;68187;42.682;23.352;2024-03-23T08:08:15;18.75;;;13.07;;
78834;SDS011;68187;42.682;23.352;2024-03-23T08:10:48;19.63;;;13.93;;
78834;SDS011;68187;42.682;23.352;2024-03-23T08:13:15;21.48;;;14.00;;
78834;SDS011;68187;42.682;23.352;2024-03-23T08:15:42;22.67;;;14.70;;
78834;SDS011;68187;42.682;23.352;2024-03-23T08:18:09;19.73;;;11.57;;
78834;SDS011;68187;42.682;23.352;2024-03-23T08:20:36;18.80;;;13.13;;
78834;SDS011;68187;42.682;23.352;2024-03-23T08:23:03;18.67;;;14.02;;
78834;SDS011;68187;42.682;23.352;2024-03-23T08:25:32;19.63;;;12.02;;
78834;SDS011;68187;42.682;23.352;2024-03-23T08:27:59;21.23;;;15.20;;
78834;SDS011;68187;42.682;23.352;2024-03-23T08:30:25;21.33;;;13.38;;
78834;SDS011;68187;42.682;23.352;2024-03-23T08:32:52;30.85;;;13.88;;
78834;SDS011;68187;42.682;23.352;2024-03-23T08:35:17;18.70;;;13.40;;
78834;SDS011;68187;42.682;23.352;2024-03-23T08:37:45;22.60;;;12.05;;
78834;SDS011;68187;42.682;23.352;2024-03-23T08:40:11;17.98;;;12.75;;
78834;SDS011;68187;42.682;23.352;2024-03-23T08:42:40;20.15;;;11.65;;
78834;SDS011;68187;42.682;23.352;2024-03-23T08:45:06;22.15;;;12.40;;
78834;SDS011;68187;42.682;23.352;2024-03-23T08:47:34;17.50;;;12.07;;
78834;SDS011;68187;42.682;23.352;2024-03-23T08:50:00;18.40;;;11.70;;
78834;SDS011;68187;42.682;23.352;2024-03-23T08:52:27;19.15;;;12.85;;
78834;SDS011;68187;42.682;23.352;2024-03-23T08:54:54;17.45;;;9.85;;
78834;SDS011;68187;42.682;23.352;2024-03-23T08:57:22;19.33;;;12.77;;
78834;SDS011;68187;42.682;23.352;2024-03-23T08:59:49;17.02;;;11.15;;
78834;SDS011;68187;42.682;23.352;2024-03-23T09:02:16;21.15;;;11.38;;
78834;SDS011;68187;42.682;23.352;2024-03-23T09:04:42;19.83;;;10.60;;
78834;SDS011;68187;42.682;23.352;2024-03-23T09:07:10;21.25;;;12.13;;
78834;SDS011;68187;42.682;23.352;2024-03-23T09:09:37;14.00;;;10.13;;
78834;SDS011;68187;42.682;23.352;2024-03-23T09:12:05;15.63;;;10.45;;
78834;SDS011;68187;42.682;23.352;2024-03-23T09:14:31;17.77;;;12.05;;
78834;SDS011;68187;42.682;23.352;2024-03-23T09:17:00;29.27;;;11.48;;
78834;SDS011;68187;42.682;23.352;2024-03-23T09:19:26;19.70;;;11.32;;
78834;SDS011;68187;42.682;23.352;2024-03-23T09:21:54;17.30;;;10.65;;
78834;SDS011;68187;42.682;23.352;2024-03-23T09:24:21;17.75;;;10.05;;
78834;SDS011;68187;42.682;23.352;2024-03-23T09:26:47;18.35;;;12.13;;
78834;SDS011;68187;42.682;23.352;2024-03-23T09:29:13;17.35;;;12.02;;
78834;SDS011;68187;42.682;23.352;2024-03-23T09:31:40;19.63;;;10.20;;
78834;SDS011;68187;42.682;23.352;2024-03-23T09:34:08;16.65;;;10.50;;
78834;SDS011;68187;42.682;23.352;2024-03-23T09:36:34;15.95;;;10.05;;
78834;SDS011;68187;42.682;23.352;2024-03-23T09:39:00;16.80;;;10.02;;
78834;SDS011;68187;42.682;23.352;2024-03-23T09:41:28;16.40;;;9.70;;
78834;SDS011;68187;42.682;23.352;2024-03-23T09:43:54;14.82;;;11.23;;
78834;SDS011;68187;42.682;23.352;2024-03-23T09:46:21;15.82;;;11.70;;
78834;SDS011;68187;42.682;23.352;2024-03-23T09:48:48;18.00;;;10.52;;
78834;SDS011;68187;42.682;23.352;2024-03-23T09:51:16;15.20;;;11.30;;
78834;SDS011;68187;42.682;23.352;2024-03-23T09:53:42;16.23;;;10.52;;
78834;SDS011;68187;42.682;23.352;2024-03-23T09:56:09;15.23;;;10.18;;
78834;SDS011;68187;42.682;23.352;2024-03-23T09:58:35;15.02;;;9.32;;
78834;SDS011;68187;42.682;23.352;2024-03-23T10:01:02;14.07;;;9.70;;
78834;SDS011;68187;42.682;23.352;2024-03-23T10:03:28;14.45;;;8.20;;
78834;SDS011;68187;42.682;23.352;2024-03-23T10:06:02;17.58;;;10.13;;
78834;SDS011;68187;42.682;23.352;2024-03-23T10:08:29;16.27;;;10.07;;
78834;SDS011;68187;42.682;23.352;2024-03-23T10:10:58;15.90;;;8.88;;
78834;SDS011;68187;42.682;23.352;2024-03-23T10:13:39;16.02;;;8.50;;
78834;SDS011;68187;42.682;23.352;2024-03-23T10:16:08;15.32;;;9.52;;
78834;SDS011;68187;42.682;23.352;2024-03-23T10:18:36;16.83;;;10.18;;
78834;SDS011;68187;42.682;23.352;2024-03-23T10:21:07;15.15;;;9.45;;
78834;SDS011;68187;42.682;23.352;2024-03-23T10:23:37;11.65;;;7.63;;
78834;SDS011;68187;42.682;23.352;2024-03-23T10:26:18;14.93;;;8.93;;
78834;SDS011;68187;42.682;23.352;2024-03-23T10:28:53;14.32;;;8.40;;
78834;SDS011;68187;42.682;23.352;2024-03-23T10:31:22;11.82;;;8.60;;
78834;SDS011;68187;42.682;23.352;2024-03-23T10:33:48;11.80;;;8.50;;
78834;SDS011;68187;42.682;23.352;2024-03-23T10:36:15;12.80;;;7.35;;
78834;SDS011;68187;42.682;23.352;2024-03-23T10:38:44;15.93;;;9.63;;
78834;SDS011;68187;42.682;23.352;2024-03-23T10:41:11;14.85;;;7.32;;
78834;SDS011;68187;42.682;23.352;2024-03-23T10:43:37;17.40;;;9.73;;
78834;SDS011;68187;42.682;23.352;2024-03-23T10:46:05;12.27;;;7.82;;
78834;SDS011;68187;42.682;23.352;2024-03-23T10:48:31;15.02;;;9.68;;
78834;SDS011;68187;42.682;23.352;2024-03-23T10:50:59;11.93;;;7.70;;
78834;SDS011;68187;42.682;23.352;2024-03-23T10:53:25;14.63;;;7.82;;
78834;SDS011;68187;42.682;23.352;2024-03-23T10:55:55;14.13;;;7.53;;
78834;SDS011;68187;42.682;23.352;2024-03-23T10:58:23;10.25;;;6.88;;
78834;SDS011;68187;42.682;23.352;2024-03-23T11:00:53;12.68;;;6.90;;
78834;SDS011;68187;42.682;23.352;2024-03-23T11:03:32;17.88;;;8.32;;
78834;SDS011;68187;42.682;23.352;2024-03-23T11:06:01;12.85;;;7.68;;
78834;SDS011;68187;42.682;23.352;2024-03-23T11:08:32;15.20;;;9.20;;
78834;SDS011;68187;42.682;23.352;2024-03-23T11:11:18;11.95;;;7.30;;
78834;SDS011;68187;42.682;23.352;2024-03-23T11:13:47;9.52;;;6.40;;
78834;SDS011;68187;42.682;23.352;2024-03-23T11:16:15;12.18;;;7.00;;
78834;SDS011;68187;42.682;23.352;2024-03-23T11:18:41;14.43;;;6.75;;
78834;SDS011;68187;42.682;23.352;2024-03-23T11:21:08;11.38;;;6.68;;
78834;SDS011;68187;42.682;23.352;2024-03-23T11:23:35;11.95;;;7.03;;
78834;SDS011;68187;42.682;23.352;2024-03-23T11:26:01;11.18;;;7.43;;
78834;SDS011;68187;42.682;23.352;2024-03-23T11:28:30;12.40;;;8.50;;
78834;SDS011;68187;42.682;23.352;2024-03-23T11:30:57;14.73;;;5.82;;
78834;SDS011;68187;42.682;23.352;2024-03-23T11:33:23;13.20;;;7.88;;
78834;SDS011;68187;42.682;23.352;2024-03-23T11:35:50;12.48;;;6.80;;
78834;SDS011;68187;42.682;23.352;2024-03-23T11:38:17;9.73;;;6.25;;
78834;SDS011;68187;42.682;23.352;2024-03-23T11:40:44;13.90;;;5.90;;
78834;SDS011;68187;42.682;23.352;2024-03-23T11:43:12;11.82;;;7.65;;
78834;SDS011;68187;42.682;23.352;2024-03-23T11:45:42;13.68;;;7.25;;
78834;SDS011;68187;42.682;23.352;2024-03-23T11:48:09;14.68;;;7.47;;
78834;SDS011;68187;42.682;23.352;2024-03-23T11:50:38;13.43;;;6.18;;
78834;SDS011;68187;42.682;23.352;2024-03-23T11:53:06;11.00;;;5.53;;
78834;SDS011;68187;42.682;23.352;2024-03-23T11:55:44;19.63;;;6.70;;
78834;SDS011;68187;42.682;23.352;2024-03-23T11:58:13;10.85;;;6.50;;
78834;SDS011;68187;42.682;23.352;2024-03-23T12:00:42;13.90;;;5.57;;
78834;SDS011;68187;42.682;23.352;2024-03-23T12:03:15;14.90;;;7.57;;
78834;SDS011;68187;42.682;23.352;2024-03-23T12:05:46;10.43;;;7.15;;
78834;SDS011;68187;42.682;23.352;2024-03-23T12:08:17;13.43;;;6.88;;
78834;SDS011;68187;42.682;23.352;2024-03-23T12:10:46;12.40;;;6.03;;
78834;SDS011;68187;42.682;23.352;2024-03-23T12:13:14;10.18;;;7.40;;
78834;SDS011;68187;42.682;23.352;2024-03-23T12:15:44;13.27;;;6.90;;
78834;SDS011;68187;42.682;23.352;2024-03-23T12:18:10;11.10;;;6.18;;
78834;SDS011;68187;42.682;23.352;2024-03-23T12:20:38;9.10;;;5.53;;
78834;SDS011;68187;42.682;23.352;2024-03-23T12:23:05;12.63;;;7.00;;
78834;SDS011;68187;42.682;23.352;2024-03-23T12:25:32;9.73;;;6.43;;
78834;SDS011;68187;42.682;23.352;2024-03-23T12:27:59;9.70;;;5.25;;
78834;SDS011;68187;42.682;23.352;2024-03-23T12:30:26;9.05;;;4.75;;
78834;SDS011;68187;42.682;23.352;2024-03-23T12:32:53;8.38;;;5.15;;
78834;SDS011;68187;42.682;23.352;2024-03-23T12:35:21;6.97;;;4.15;;
78834;SDS011;68187;42.682;23.352;2024-03-23T12:37:46;11.30;;;5.20;;
78834;SDS011;68187;42.682;23.352;2024-03-23T12:40:14;9.05;;;4.05;;
78834;SDS011;68187;42.682;23.352;2024-03-23T12:42:39;9.13;;;5.35;;
78834;SDS011;68187;42.682;23.352;2024-03-23T12:45:07;10.38;;;5.82;;
78834;SDS011;68187;42.682;23.352;2024-03-23T12:47:33;7.43;;;4.03;;
78834;SDS011;68187;42.682;23.352;2024-03-23T12:50:03;8.80;;;4.43;;
78834;SDS011;68187;42.682;23.352;2024-03-23T12:52:29;7.95;;;4.80;;
78834;SDS011;68187;42.682;23.352;2024-03-23T12:54:56;11.48;;;4.90;;
78834;SDS011;68187;42.682;23.352;2024-03-23T12:57:22;10.27;;;4.78;;
78834;SDS011;68187;42.682;23.352;2024-03-23T12:59:50;6.47;;;3.67;;
78834;SDS011;68187;42.682;23.352;2024-03-23T13:02:17;7.55;;;3.63;;
78834;SDS011;68187;42.682;23.352;2024-03-23T13:04:45;7.15;;;4.32;;
78834;SDS011;68187;42.682;23.352;2024-03-23T13:07:13;6.43;;;3.58;;
78834;SDS011;68187;42.682;23.352;2024-03-23T13:09:41;10.55;;;2.85;;
78834;SDS011;68187;42.682;23.352;2024-03-23T13:12:07;5.90;;;3.70;;
78834;SDS011;68187;42.682;23.352;2024-03-23T13:14:34;5.38;;;2.95;;
78834;SDS011;68187;42.682;23.352;2024-03-23T13:17:00;9.15;;;5.80;;
78834;SDS011;68187;42.682;23.352;2024-03-23T13:19:29;8.35;;;5.45;;
78834;SDS011;68187;42.682;23.352;2024-03-23T13:21:56;9.77;;;5.22;;
78834;SDS011;68187;42.682;23.352;2024-03-23T13:24:25;9.07;;;4.93;;
78834;SDS011;68187;42.682;23.352;2024-03-23T13:26:51;8.90;;;4.05;;
78834;SDS011;68187;42.682;23.352;2024-03-23T13:29:18;8.77;;;4.18;;
78834;SDS011;68187;42.682;23.352;2024-03-23T13:31:45;6.25;;;3.03;;
78834;SDS011;68187;42.682;23.352;2024-03-23T13:34:12;4.55;;;3.33;;
78834;SDS011;68187;42.682;23.352;2024-03-23T13:36:40;3.70;;;1.50;;
78834;SDS011;68187;42.682;23.352;2024-03-23T13:39:07;4.45;;;1.40;;
78834;SDS011;68187;42.682;23.352;2024-03-23T13:41:38;3.83;;;1.63;;
78834;SDS011;68187;42.682;23.352;2024-03-23T13:44:05;3.78;;;1.30;;
78834;SDS011;68187;42.682;23.352;2024-03-23T13:46:31;4.50;;;1.58;;
78834;SDS011;68187;42.682;23.352;2024-03-23T13:48:58;3.03;;;1.52;;
78834;SDS011;68187;42.682;23.352;2024-03-23T13:51:25;3.72;;;2.60;;
78834;SDS011;68187;42.682;23.352;2024-03-23T13:53:53;4.45;;;1.13;;
78834;SDS011;68187;42.682;23.352;2024-03-23T13:56:19;4.40;;;2.47;;
78834;SDS011;68187;42.682;23.352;2024-03-23T13:58:48;4.00;;;2.92;;
78834;SDS011;68187;42.682;23.352;2024-03-23T14:01:14;5.43;;;1.95;;
78834;SDS011;68187;42.682;23.352;2024-03-23T14:03:41;3.17;;;1.40;;
78834;SDS011;68187;42.682;23.352;2024-03-23T14:06:09;5.53;;;1.80;;
78834;SDS011;68187;42.682;23.352;2024-03-23T14:08:36;5.93;;;2.85;;
78834;SDS011;68187;42.682;23.352;2024-03-23T14:11:04;4.72;;;2.35;;
78834;SDS011;68187;42.682;23.352;2024-03-23T14:13:31;3.20;;;1.58;;
78834;SDS011;68187;42.682;23.352;2024-03-23T14:15:58;3.63;;;1.85;;
78834;SDS011;68187;42.682;23.352;2024-03-23T14:18:25;3.88;;;1.65;;
78834;SDS011;68187;42.682;23.352;2024-03-23T14:20:52;4.82;;;2.55;;
78834;SDS011;68187;42.682;23.352;2024-03-23T14:23:23;5.43;;;2.55;;
78834;SDS011;68187;42.682;23.352;2024-03-23T14:25:49;4.30;;;1.60;;
78834;SDS011;68187;42.682;23.352;2024-03-23T14:28:16;4.15;;;1.50;;
78834;SDS011;68187;42.682;23.352;2024-03-23T14:30:42;4.05;;;1.30;;
78834;SDS011;68187;42.682;23.352;2024-03-23T14:33:10;5.63;;;2.28;;
78834;SDS011;68187;42.682;23.352;2024-03-23T14:35:36;4.32;;;2.58;;
78834;SDS011;68187;42.682;23.352;2024-03-23T14:38:03;4.15;;;2.42;;
78834;SDS011;68187;42.682;23.352;2024-03-23T14:40:29;4.78;;;2.42;;
78834;SDS011;68187;42.682;23.352;2024-03-23T14:42:56;4.00;;;2.28;;
78834;SDS011;68187;42.682;23.352;2024-03-23T14:45:22;3.13;;;1.33;;
78834;SDS011;68187;42.682;23.352;2024-03-23T14:47:50;5.55;;;2.40;;
78834;SDS011;68187;42.682;23.352;2024-03-23T14:50:17;4.28;;;2.03;;
78834;SDS011;68187;42.682;23.352;2024-03-23T14:52:44;4.53;;;2.78;;
78834;SDS011;68187;42.682;23.352;2024-03-23T14:55:10;3.92;;;2.85;;
78834;SDS011;68187;42.682;23.352;2024-03-23T14:57:37;3.70;;;1.50;;
78834;SDS011;68187;42.682;23.352;2024-03-23T15:00:06;4.13;;;2.42;;
78834;SDS011;68187;42.682;23.352;2024-03-23T15:02:35;3.10;;;1.17;;
78834;SDS011;68187;42.682;23.352;2024-03-23T15:05:01;4.18;;;1.85;;
78834;SDS011;68187;42.682;23.352;2024-03-23T15:07:31;5.50;;;2.95;;
78834;SDS011;68187;42.682;23.352;2024-03-23T15:09:56;3.97;;;1.45;;